Benvolgut visitant, si us plau, ingressa Recuperar contrasenya
AVAMET paisatges
Union Alcoyana

Sant Fulgenci centre

Dades diàries. Acumulats / Últims 30 dies disponibles

Data Temperatura (°C) Humitat rel. (%) Pressió rel. (hPa) Vent (km/h) Precipitació
Mínima Mitjana Màxima Amplitud
tèrmica
Mínima Mitjana Màxima Mínima Mitjana Màxima Predom. Mitjana Ràfega
màxima
Total
(mm)
Índex-n
Mínima Mitjana Màxima Mínima Mitjana Màxima n
0 a 1
P0 max
mm 5'
Dades mensuals acumulades fins l'últim dia disponible
05/2022 11,3 14,2 17,0 20,6 17,2 23,9 28,4 17,1   11,1 41,8 13,5
Dades anuals acumulades fins l'últim dia disponible
2022 1,7 9,3 19,2 14,1 10,9 18,4 28,4 26,7   11,1 70,8 181,2
Últims 30 dies disponibles
20-05-2022 16,7     25,2     28,4 11,7 NE 16,6 41,8 0,0
19-05-2022 16,2     23,8     27,1 10,9 ENE 14,8 40,2 0,0
18-05-2022 17,0     23,0     25,1 8,1 E 9,2 27,4 0,0
17-05-2022 16,4     23,5     27,2 10,8 ESE 8,3 22,5 0,0
16-05-2022 15,8     22,4     26,1 10,3 SE 8,2 22,5 0,0
13-05-2022 14,8     20,7     24,4 9,6 WNW 9,6 25,7 0,0
12-05-2022 11,9     20,0     23,2 11,3 ENE 13,0 32,2 0,0
11-05-2022 12,2     20,3     23,9 11,7 SE 8,0 29,0 0,0
10-05-2022 12,9     20,9     24,3 11,4 NW 7,2 24,1 0,0
09-05-2022 12,4     20,1     23,6 11,2 NNE 10,1 27,4 0,0
06-05-2022 11,3     18,3     22,8 11,5 WSW 10,6 32,2 0,0
05-05-2022 15,2     19,1     23,1 7,9 NNE 12,3 30,6 0,0
04-05-2022 13,9     15,5     17,2 3,3 NNE 13,5 38,6 13,2
03-05-2022 12,2     18,3     21,5 9,3 SSW 11,2 35,4 0,0
02-05-2022 14,7     17,7     20,2 5,5 ENE 14,0 41,8 0,3
29-04-2022 10,8     18,0     20,7 9,9 W 15,4 49,9 0,0
28-04-2022 12,2     14,7     15,6 3,4 N 6,2 22,5 3,1
27-04-2022 12,7     15,4     18,6 5,9 W 7,1 25,7 0,5
26-04-2022 10,9     16,6     19,6 8,7 NE 10,7 30,6 0,0
25-04-2022 11,3     17,2     20,3 9,0 E 7,8 25,7 0,0
22-04-2022 11,8     16,6     18,7 6,9 SW 10,1 37,0 0,0
21-04-2022 11,6     17,8     21,5 9,9 WNW 19,9 41,8 0,0
20-04-2022 9,3     12,2     14,8 5,5 NE 14,7 61,2 16,5
19-04-2022 13,7     17,6     19,8 6,1 NE 11,3 32,2 0,3
18-04-2022 12,5     18,6     22,0 9,5 ENE 7,9 25,7 0,0
15-04-2022 12,7     20,0     25,0 12,3 N 10,4 32,2 0,0
14-04-2022 14,3     18,2     22,3 8,0 NNE 17,6 56,3 1,5
13-04-2022 11,7     15,5     19,8 8,1 NNW 9,6 41,8 3,3
12-04-2022 12,6     15,6     17,2 4,6 WNW 7,5 24,1 1,0
11-04-2022 9,4     15,5     17,9 8,5 NE 16,8 51,5 0,0
Últims 13 mesos disponibles
04/2022 6,9 11,3 14,3 16,2 10,9 19,2 26,0 19,1 NE 13,8 67,6 65,6
03/2022 6,8 11,3 19,2 14,6 13,3 17,1 21,3 14,5 NE 15,9 69,2 80,5
02/2022 4,1 7,5 11,8 12,6 14,6 18,6 24,8 20,7 WSW 7,9 54,7 2,2
01/2022 1,7 5,6 14,1 10,2 11,2 15,8 22,9 21,2 WNW 8,6 70,8 19,4
12/2021 5,6 10,3 15,1 14,2 14,9 18,8 25,2 19,6 W 11,1 66,0 0,6
11/2021 5,8 9,8 15,4 13,9 13,7 19,0 23,4 17,6 W 11,6 72,4
10/2021 12,2 15,3 18,8 19,6 21,5 24,5 29,3 17,1 55 76 86 1.011 1.019 1.026 W 7,1 64,4 57,4
09/2021 16,3 20,2 23,7 24,5 25,6 29,2 33,9 17,6 60 75 83 1.011 1.017 1.024 WNW 8,2 53,1 15,8
08/2021 20,2 22,5 25,5 26,6 27,4 31,2 38,8 18,6 61 75 84 1.007 1.015 1.019 E 9,1 49,9 0,0
07/2021 18,3 21,1 24,8 25,6 26,9 30,4 40,4 22,1 58 75 87 1.008 1.015 1.021 E 8,4 48,3 1,0
06/2021 15,8 18,5 21,1 22,9 23,6 27,2 30,6 14,8 52 73 88 1.010 1.016 1.021 ENE 9,4 69,2 16,5
05/2021 11,8 14,8 18,9 19,5 19,7 24,3 34,4 22,6 45 71 85 1.008 1.017 1.024 ENE 11,1 83,7 75,0
04/2021 7,3 12,0 14,8 15,4 14,5 19,6 27,9 20,6 59 78 89 1.006 1.015 1.024 ENE 10,2 75,6 41,2
Tots els anys disponibles
2021 1,0 14,3 25,5 18,5 9,3 23,2 40,4 39,4 44 74 91 1.003 1.017 1.035 ENE 9,9 86,9
Temperatura (°C)
Humitat relativa (%)
Velocitat del vent i ràfega màxima (km/h)
Direcció del vent (°)
Pressió (hPa)
Precipitació (mm)
Nota sobre les dades: s'avisa a l'usuari de la provisionalitat i no oficialitat d'aquestes dades
Logo AVAMET blanc
Web allotjada a Sollutia
Llicència de Creative CommonsLa web d'AVAMET i els seus continguts estan subjectes a una llicència de
Reconeixement - No Comercial - Compartir igual
Avís legal - Política de privacitat - Política de cookies
NOVES ESTACIONS:  Vila-real - les Solaes (Soci), Calles - Parque de Emergencias (Soci), Bocairent - els Corrals (Soci), Sella - el Xarquer, Xàbia - Far del Cap de la Nau (Soci), Benicàssim - Quadre de Santiago (Soci), Sant Mateu - IES Maestrat (Soci)  / el Palomar (Ajuntament/Soci) / Atzeneta del Maestrat - Pla de Meanes (Ajuntament/Soci) / Onda - Sant Gil (Soci) / Onda - Ràtils CR Cota 220 (Soci) / la Vila Joiosa (Ajuntament/Soci) / Miramar - Platja (Ajuntament/Soci) / Massanassa - IES Massanassa (Soci) / Culla - Pla de les Vinyes (Ajuntament/Soci) - - -